Date,TemperatureHighF,TemperatureAvgF,TemperatureLowF,DewpointHighF,DewpointAvgF,DewpointLowF,HumidityHigh,HumidityAvg,HumidityLow,PressureMaxIn,PressureMinIn,WindSpeedMaxMPH,WindSpeedAvgMPH,GustSpeedMaxMPH,PrecipitationSumIn
2013-9-1,90.0,86.0,82.0,81.0,78.5,75.0,90,79,69,30.00,29.91,19,6,19,0.00
2013-9-2,89.0,85.6,84.0,81.0,78.5,75.0,89,80,69,30.05,29.73,18,7,19,0.00
2013-9-3,88.0,83.8,78.0,81.0,78.4,73.0,93,84,72,30.02,29.68,29,7,29,0.16
2013-9-4,89.0,85.7,84.0,82.0,79.5,74.0,89,82,68,30.03,29.64,26,10,27,0.13
2013-9-5,89.0,85.4,79.0,81.0,79.8,76.0,97,84,73,30.04,29.50,35,12,40,0.41
2013-9-6,87.0,84.3,77.0,82.0,79.7,68.0,100,87,77,30.04,29.91,37,9,39,0.99
2013-9-7,86.0,82.8,72.0,81.0,77.7,71.0,100,85,71,30.00,29.86,40,10,40,1.72
2013-9-8,88.0,84.6,81.0,79.0,77.4,72.0,88,80,70,29.95,29.64,21,7,21,0.00
2013-9-9,88.0,85.0,82.0,80.0,77.8,75.0,88,80,73,29.97,29.87,20,10,23,0.00
2013-9-10,87.0,84.3,81.0,81.0,78.9,74.0,95,84,74,30.01,29.91,29,13,31,0.47
2013-9-11,87.0,82.8,77.0,81.0,78.2,72.0,100,87,76,30.06,29.91,40,14,40,1.60
2013-9-12,86.0,83.7,82.0,80.0,77.2,69.0,88,81,64,30.04,29.87,29,10,29,0.00
2013-9-13,88.0,84.6,83.0,80.0,78.0,75.0,90,81,71,29.91,29.80,16,9,18,0.00
2013-9-14,87.0,84.5,80.0,81.0,78.2,75.0,93,82,74,29.95,29.81,29,9,29,0.08
2013-9-15,88.0,84.4,80.0,82.0,79.2,74.0,94,85,76,30.01,29.89,40,13,40,0.00
2013-9-16,85.0,83.3,81.0,82.0,79.2,76.0,93,88,79,30.01,29.70,32,14,32,0.02
2013-9-17,84.0,81.6,76.0,81.0,77.9,74.0,100,89,79,30.04,29.88,38,12,38,2.77
2013-9-18,85.0,82.5,79.0,82.0,79.3,75.0,97,90,82,30.00,29.88,21,8,21,1.81
2013-9-19,86.0,83.6,82.0,81.0,78.9,77.0,92,86,80,30.00,29.92,18,7,18,0.00
2013-9-20,86.0,83.6,82.0,80.0,78.2,77.0,90,84,79,29.99,29.86,20,9,21,0.00
2013-9-21,89.0,84.3,82.0,79.0,76.6,73.0,85,78,67,30.01,29.77,22,8,23,0.00
2013-9-22,89.0,84.4,81.0,82.0,79.0,75.0,97,84,76,29.85,29.76,24,9,25,0.06
2013-9-23,88.0,84.9,79.0,83.0,81.6,76.0,99,90,84,29.93,29.81,31,15,31,0.31
2013-9-24,88.0,85.3,84.0,83.0,81.2,79.0,94,88,83,29.96,29.87,26,9,26,0.00
2013-9-25,87.0,84.8,84.0,82.0,80.9,79.0,94,89,81,29.92,29.83,20,8,20,0.00
2013-9-26,86.0,84.4,83.0,81.0,79.7,76.0,90,86,80,29.95,29.84,19,8,21,0.00
2013-9-27,85.0,82.0,77.0,82.0,78.3,71.0,100,89,73,29.93,29.85,23,8,24,1.49
2013-9-28,87.0,82.5,80.0,77.0,72.8,69.0,80,73,66,29.95,29.86,14,4,15,0.00
2013-9-29,88.0,83.7,81.0,77.0,74.9,71.0,81,76,67,29.94,29.85,17,6,17,0.00
2013-9-30,88.0,84.5,82.0,80.0,77.3,73.0,85,79,72,29.95,29.86,23,10,23,0.02